Shemah Yisrael!
Hear, O Israel: the LORD our God, the LORD is one.
You shall love the LORD your God with all your heart and with all your soul and with all your might.
(Deuteronomy 6:4-5)
Houston / Ellington, TX, United States (KEFD) 29-36N 095-10W
Oct 31, 2020 - 11:50 AM EDT / 2020.10.31 1550 UTC
Wind: from the ENE (070 degrees) at 7 MPH (6 KT):0
Visibility: 10 mile(s):0
Sky conditions: mostly clear
Temperature: 64 F (18 C)
Dew Point: 55 F (13 C)
Relative Humidity: 72%
Pressure (altimeter): 30.24 in. Hg (1024 hPa)
ob: KEFD 311550Z 07006KT 10SM FEW025 18/13 A3024 
cycle: 16
w e b m a s t e r   a t   s h e m a h   d o t   n e t